Time;durP1;ratioP1;P1;durP2;ratioP2;P2;SDS_P1;SDS_P2;PMS_P1;PMS_P2;Temp;Humidity;BMP_temperature;BMP_pressure;BME280_temperature;BME280_humidity;BME280_pressure;Samples;Min_cycle;Max_cycle;Signal;HPM_P1;HPM_P2
2022/06/13 00:01:13;;;;;;;8.35;2.90;;;;;;;16.33;82.44;101609.31;5055546;28;20108;-73
2022/06/13 00:03:40;;;;;;;10.35;3.15;;;;;;;16.31;81.75;101608.16;5056201;28;20514;-73
2022/06/13 00:06:07;;;;;;;15.15;3.00;;;;;;;16.24;79.87;101599.84;5056145;28;20044;-75
2022/06/13 00:08:35;;;;;;;11.75;3.22;;;;;;;16.22;80.95;101599.47;5053688;28;20048;-72
2022/06/13 00:11:04;;;;;;;11.15;3.30;;;;;;;16.20;82.36;101594.28;5054199;28;20796;-74
2022/06/13 00:13:31;;;;;;;9.25;3.03;;;;;;;16.14;85.69;101586.78;5054773;28;20051;-73
2022/06/13 00:15:57;;;;;;;13.45;3.53;;;;;;;16.11;81.48;101588.41;5059198;28;20048;-73
2022/06/13 00:18:24;;;;;;;12.02;2.88;;;;;;;16.07;82.47;101584.06;5060110;28;20052;-74
2022/06/13 00:20:53;;;;;;;8.43;3.35;;;;;;;16.01;84.13;101588.50;5055155;28;20582;-73
2022/06/13 00:23:20;;;;;;;10.05;3.35;;;;;;;16.01;86.30;101597.69;5057253;28;20131;-72
2022/06/13 00:25:47;;;;;;;11.18;3.30;;;;;;;15.96;83.64;101591.75;5057357;28;20123;-72
2022/06/13 00:28:13;;;;;;;13.40;3.53;;;;;;;15.92;85.81;101589.00;5060035;28;20339;-73
2022/06/13 00:30:40;;;;;;;11.77;3.15;;;;;;;15.86;85.70;101595.44;5058153;28;20112;-73
2022/06/13 00:33:06;;;;;;;12.20;3.58;;;;;;;15.82;86.63;101594.69;5059484;28;20054;-72
2022/06/13 00:35:33;;;;;;;12.75;3.70;;;;;;;15.83;85.05;101590.69;5056809;28;20052;-74
2022/06/13 00:38:00;;;;;;;9.93;3.65;;;;;;;15.80;86.09;101583.13;5059687;28;20576;-73
2022/06/13 00:40:26;;;;;;;14.65;3.75;;;;;;;15.76;86.03;101587.94;5060938;28;20133;-74
2022/06/13 00:42:53;;;;;;;8.55;3.42;;;;;;;15.65;86.64;101585.25;5057727;28;20055;-74
2022/06/13 00:45:32;;;;;;;11.65;4.38;;;;;;;15.60;90.26;101588.47;5056787;28;20075;-73
2022/06/13 00:47:59;;;;;;;9.18;3.13;;;;;;;15.57;91.22;101580.94;5056690;28;20613;-76
2022/06/13 00:50:35;;;;;;;12.13;3.25;;;;;;;15.56;89.18;101587.72;5064614;28;20040;-75
2022/06/13 00:53:12;;;;;;;13.70;4.47;;;;;;;15.56;90.96;101584.94;5064748;28;20052;-73
2022/06/13 00:55:44;;;;;;;10.00;3.25;;;;;;;15.53;89.57;101586.53;5063818;28;20056;-74
2022/06/13 00:58:13;;;;;;;8.15;3.33;;;;;;;15.49;90.76;101582.97;5063400;28;20076;-74
2022/06/13 01:00:43;;;;;;;12.52;3.80;;;;;;;15.35;90.20;101583.03;5051446;28;20053;-74
2022/06/13 01:03:11;;;;;;;12.65;4.28;;;;;;;15.28;92.41;101582.28;5051752;28;20559;-74
2022/06/13 01:05:41;;;;;;;11.80;3.72;;;;;;;15.24;92.59;101573.16;5052822;28;20103;-73
2022/06/13 01:08:10;;;;;;;14.25;3.53;;;;;;;15.19;92.79;101568.03;5055732;28;20138;-73
2022/06/13 01:13:52;;;;;;;9.55;3.53;;;;;;;15.13;95.26;101558.50;5048818;28;20077;-74
2022/06/13 01:16:27;;;;;;;12.15;3.85;;;;;;;15.19;94.24;101571.59;5052140;28;20045;-73
2022/06/13 01:19:04;;;;;;;11.60;3.65;;;;;;;15.15;92.97;101575.59;5049822;28;20072;-73
2022/06/13 01:21:58;;;;;;;8.23;3.13;;;;;;;15.10;94.33;101570.47;5050822;28;20051;-74
2022/06/13 01:24:25;;;;;;;8.13;3.28;;;;;;;15.11;94.45;101567.28;5051227;28;20568;-75
2022/06/13 01:26:58;;;;;;;8.20;3.40;;;;;;;15.08;94.06;101573.66;5055984;28;20905;-74
2022/06/13 01:29:38;;;;;;;10.00;3.75;;;;;;;15.07;94.38;101571.28;5054108;28;20136;-73
2022/06/13 01:32:08;;;;;;;8.43;3.08;;;;;;;15.03;95.14;101570.50;5059466;28;20135;-74
2022/06/13 01:34:34;;;;;;;8.18;3.97;;;;;;;14.99;93.81;101576.09;5051197;28;20140;-74
2022/06/13 01:37:38;;;;;;;12.35;4.32;;;;;;;14.98;94.83;101565.34;5053444;28;20139;-74
2022/06/13 01:40:09;;;;;;;8.75;3.70;;;;;;;14.98;94.73;101577.31;5059635;28;20098;-74
2022/06/13 01:43:01;;;;;;;10.45;2.95;;;;;;;15.00;96.51;101580.50;5055737;28;20140;-74
2022/06/13 01:45:55;;;;;;;7.25;3.03;;;;;;;15.00;96.53;101571.31;5054244;28;20124;-73
2022/06/13 01:48:29;;;;;;;11.65;3.67;;;;;;;15.04;94.70;101572.09;5052223;28;20049;-73
2022/06/13 01:51:02;;;;;;;12.43;3.08;;;;;;;15.06;96.73;101575.28;5054869;28;20048;-73
2022/06/13 01:53:42;;;;;;;9.95;3.78;;;;;;;15.08;96.73;101572.84;5061289;28;20498;-74
2022/06/13 01:56:12;;;;;;;8.98;3.28;;;;;;;15.09;97.13;101569.66;5061076;28;20127;-77
2022/06/13 01:58:38;;;;;;;9.88;3.42;;;;;;;15.17;98.52;101565.66;5059521;28;20136;-73
2022/06/13 02:01:17;;;;;;;10.82;3.97;;;;;;;15.18;96.18;101570.00;5061794;28;20052;-74
2022/06/13 02:03:52;;;;;;;8.00;3.03;;;;;;;15.25;94.77;101581.13;5058406;28;20053;-73
2022/06/13 02:06:28;;;;;;;10.32;3.03;;;;;;;15.29;96.86;101579.09;5055630;28;20064;-74
2022/06/13 02:09:04;;;;;;;7.72;3.20;;;;;;;15.30;96.42;101577.13;5064561;28;20123;-73
2022/06/13 02:11:38;;;;;;;10.63;3.55;;;;;;;15.31;97.12;101579.50;5063497;28;20048;-73
2022/06/13 02:14:27;;;;;;;10.40;3.13;;;;;;;15.34;97.49;101578.69;5062269;28;20132;-74
2022/06/13 02:17:17;;;;;;;8.23;2.88;;;;;;;15.34;98.07;101580.66;5062182;28;20506;-73
2022/06/13 02:19:47;;;;;;;12.25;3.50;;;;;;;15.31;96.56;101581.47;5056873;28;20046;-73
2022/06/13 02:22:37;;;;;;;8.98;3.90;;;;;;;15.29;96.62;101581.88;5063117;28;20049;-74
2022/06/13 02:25:10;;;;;;;11.60;3.45;;;;;;;15.28;95.95;101577.53;5055663;28;20048;-77
2022/06/13 02:27:39;;;;;;;13.07;3.88;;;;;;;15.25;95.87;101578.34;5055142;28;20143;-74
2022/06/13 02:30:14;;;;;;;11.23;4.63;;;;;;;15.19;96.97;101577.16;5055967;28;20127;-74
2022/06/13 02:33:07;;;;;;;9.88;3.42;;;;;;;15.17;98.85;101584.38;5050448;28;20102;-73
2022/06/13 02:35:39;;;;;;;13.63;3.47;;;;;;;15.13;99.88;101576.00;5060100;28;20048;-76
2022/06/13 02:38:12;;;;;;;9.55;3.20;;;;;;;15.10;100.00;101565.69;5064975;28;20127;-73
2022/06/13 02:40:45;;;;;;;12.30;3.65;;;;;;;15.10;99.32;101574.06;5062926;28;20131;-76
2022/06/13 02:43:28;;;;;;;12.68;3.97;;;;;;;15.09;97.93;101577.25;5058307;28;20135;-74
2022/06/13 02:46:01;;;;;;;8.43;3.35;;;;;;;15.07;98.69;101565.72;5059802;28;20150;-74
2022/06/13 02:48:38;;;;;;;11.02;3.70;;;;;;;14.95;99.88;101549.47;5060136;28;20094;-74
2022/06/13 02:51:10;;;;;;;9.60;3.40;;;;;;;14.97;99.79;101559.00;5057979;28;20056;-73
2022/06/13 02:53:58;;;;;;;12.07;3.85;;;;;;;14.92;99.09;101570.56;5058671;28;20052;-74
2022/06/13 03:00:08;;;;;;;11.75;3.70;;;;;;;14.91;100.00;101563.41;5057644;28;20147;-73
2022/06/13 03:02:48;;;;;;;12.60;3.92;;;;;;;14.91;100.00;101571.78;5058266;28;20139;-74
2022/06/13 03:05:48;;;;;;;11.93;3.90;;;;;;;14.91;100.00;101576.53;5064248;28;20662;-74
2022/06/13 03:08:33;;;;;;;12.30;3.80;;;;;;;14.91;100.00;101570.97;5057227;28;20591;-74
2022/06/13 03:11:25;;;;;;;13.05;3.85;;;;;;;14.91;100.00;101557.84;5059317;28;20041;-75
2022/06/13 03:14:00;;;;;;;12.30;3.88;;;;;;;14.96;100.00;101557.41;5060302;28;20178;-74
2022/06/13 03:16:34;;;;;;;12.57;3.80;;;;;;;14.97;100.00;101556.22;5059579;28;20064;-76
2022/06/13 03:19:16;;;;;;;12.00;3.70;;;;;;;15.02;100.00;101569.72;5061946;28;20128;-74
2022/06/13 03:21:49;;;;;;;9.43;3.58;;;;;;;15.04;100.00;101550.59;5062539;28;20052;-74
2022/06/13 03:24:21;;;;;;;13.27;3.80;;;;;;;15.13;100.00;101572.44;5055051;28;20550;-74
2022/06/13 03:26:59;;;;;;;8.23;3.40;;;;;;;15.12;100.00;101568.84;5060442;28;20059;-75
2022/06/13 03:29:55;;;;;;;7.70;3.03;;;;;;;15.15;100.00;101567.25;5054326;28;20059;-74
2022/06/13 03:32:26;;;;;;;14.80;4.22;;;;;;;15.16;100.00;101561.25;5061086;28;20056;-74
2022/06/13 03:34:58;;;;;;;11.80;4.07;;;;;;;15.10;100.00;101560.13;5062972;28;20067;-74
2022/06/13 03:37:32;;;;;;;13.57;4.43;;;;;;;15.15;100.00;101564.44;5062144;28;20139;-74
2022/06/13 03:40:06;;;;;;;16.13;4.65;;;;;;;15.20;100.00;101573.19;5063421;28;20128;-74
2022/06/13 03:42:45;;;;;;;8.15;3.58;;;;;;;15.26;100.00;101582.69;5063455;28;20091;-74
2022/06/13 03:45:22;;;;;;;9.60;3.92;;;;;;;15.30;100.00;101580.69;5061744;28;20082;-74
2022/06/13 03:48:17;;;;;;;10.77;4.05;;;;;;;15.34;100.00;101575.91;5059682;28;20572;-76
2022/06/13 03:50:56;;;;;;;11.73;3.60;;;;;;;15.37;100.00;101568.72;5059975;28;20049;-74
2022/06/13 03:53:26;;;;;;;13.25;4.45;;;;;;;15.41;100.00;101564.72;5061360;28;20059;-74
2022/06/13 03:56:05;;;;;;;10.98;4.07;;;;;;;15.38;100.00;101554.38;5062537;28;20456;-75
2022/06/13 03:59:15;;;;;;;12.13;3.72;;;;;;;15.48;100.00;101558.28;5063166;28;20147;-73
2022/06/13 04:01:48;;;;;;;11.77;3.83;;;;;;;15.48;100.00;101554.72;5049705;28;20055;-75
2022/06/13 04:04:19;;;;;;;10.18;3.83;;;;;;;15.53;100.00;101566.22;5056593;28;20131;-74
2022/06/13 04:06:46;;;;;;;11.38;4.32;;;;;;;15.57;100.00;101570.53;5056105;28;20410;-74
2022/06/13 04:09:15;;;;;;;13.30;4.32;;;;;;;15.65;100.00;101581.69;5063263;28;20135;-75
2022/06/13 04:12:07;;;;;;;14.35;4.65;;;;;;;15.68;100.00;101584.41;5059373;28;20063;-74
2022/06/13 04:15:11;;;;;;;12.00;3.95;;;;;;;15.66;100.00;101581.22;5047728;28;20519;-75
2022/06/13 04:18:03;;;;;;;15.57;4.85;;;;;;;15.69;100.00;101574.06;5057586;28;20058;-74
2022/06/13 04:20:36;;;;;;;13.63;4.32;;;;;;;15.72;100.00;101581.63;5039765;28;20044;-75
2022/06/13 04:23:08;;;;;;;13.77;4.80;;;;;;;15.76;100.00;101579.59;5049280;28;20053;-74
2022/06/13 04:26:00;;;;;;;13.52;5.03;;;;;;;15.78;100.00;101586.31;5058823;28;20057;-75
2022/06/13 04:28:40;;;;;;;15.02;5.40;;;;;;;15.82;100.00;101586.31;5053281;28;20081;-74
2022/06/13 04:31:08;;;;;;;17.40;5.20;;;;;;;15.85;100.00;101577.09;5056547;28;20075;-74
2022/06/13 04:33:42;;;;;;;15.18;4.80;;;;;;;15.88;100.00;101591.03;5056921;28;20592;-74
2022/06/13 04:36:11;;;;;;;12.93;4.70;;;;;;;15.89;100.00;101589.81;5062262;28;20398;-75
2022/06/13 04:38:45;;;;;;;12.13;4.28;;;;;;;15.83;100.00;101596.25;5051044;28;20057;-74
2022/06/13 04:41:14;;;;;;;16.10;4.72;;;;;;;15.87;100.00;101588.66;5056530;28;20151;-75
2022/06/13 04:43:48;;;;;;;14.70;5.10;;;;;;;15.83;100.00;101569.13;5057884;28;20135;-74
2022/06/13 04:46:19;;;;;;;13.27;5.50;;;;;;;15.85;100.00;101582.66;5056822;28;20090;-76
2022/06/13 04:48:49;;;;;;;13.68;5.40;;;;;;;15.79;100.00;101585.13;5055875;28;20052;-74
2022/06/13 04:51:20;;;;;;;14.80;5.03;;;;;;;15.75;100.00;101586.34;5056724;28;20123;-74
2022/06/13 04:54:06;;;;;;;14.93;5.35;;;;;;;15.76;100.00;101585.94;5059370;28;20046;-74
2022/06/13 04:56:33;;;;;;;14.10;4.90;;;;;;;15.61;100.00;101594.84;5058860;28;20167;-74
2022/06/13 04:59:01;;;;;;;13.98;5.28;;;;;;;15.53;100.00;101594.88;5059694;28;20136;-73
2022/06/13 05:01:33;;;;;;;14.65;5.32;;;;;;;15.53;100.00;101597.69;5056198;28;20055;-74
2022/06/13 05:04:04;;;;;;;15.88;5.28;;;;;;;15.57;100.00;101596.88;5060726;28;20052;-74
2022/06/13 05:06:33;;;;;;;19.08;6.18;;;;;;;15.57;100.00;101594.88;5053291;28;20343;-74
2022/06/13 05:09:20;;;;;;;16.60;5.28;;;;;;;15.57;100.00;101610.81;5060571;28;20048;-74
2022/06/13 05:12:06;;;;;;;16.55;5.63;;;;;;;15.56;100.00;101609.22;5061845;28;20091;-74
2022/06/13 05:14:45;;;;;;;21.08;5.60;;;;;;;15.62;100.00;101613.94;5056574;28;20061;-76
2022/06/13 05:17:49;;;;;;;14.75;5.15;;;;;;;15.72;100.00;101620.69;5059038;28;20044;-78
2022/06/13 05:20:43;;;;;;;21.23;5.85;;;;;;;15.85;100.00;101633.72;5055047;28;20367;-76
2022/06/13 05:23:37;;;;;;;17.67;6.25;;;;;;;15.88;100.00;101627.31;5064560;28;20113;-76
2022/06/13 05:26:04;;;;;;;14.10;5.72;;;;;;;15.90;100.00;101630.50;5063252;28;20040;-75
2022/06/13 05:28:33;;;;;;;20.00;6.22;;;;;;;15.78;100.00;101639.34;5059489;28;20040;-75
2022/06/13 05:31:06;;;;;;;17.58;6.38;;;;;;;15.84;100.00;101639.69;5056635;28;20055;-78
2022/06/13 05:33:38;;;;;;;24.23;7.50;;;;;;;15.89;100.00;101633.69;5059828;28;20136;-75
2022/06/13 05:36:08;;;;;;;23.55;7.50;;;;;;;15.87;100.00;101628.53;5052573;28;20045;-76
2022/06/13 05:38:38;;;;;;;18.13;6.10;;;;;;;15.86;100.00;101626.91;5057919;28;20063;-76
2022/06/13 05:41:05;;;;;;;22.35;7.03;;;;;;;15.92;100.00;101633.66;5065047;28;20053;-74
2022/06/13 05:43:31;;;;;;;22.38;6.70;;;;;;;15.90;100.00;101638.06;5057060;28;20763;-76
2022/06/13 05:45:58;;;;;;;21.92;7.03;;;;;;;15.93;100.00;101638.00;5060328;28;20496;-75
2022/06/13 05:48:26;;;;;;;18.30;6.18;;;;;;;15.88;100.00;101646.03;5056278;28;20099;-75
2022/06/13 05:50:54;;;;;;;17.95;7.07;;;;;;;15.92;100.00;101655.97;5051408;28;20138;-75
2022/06/13 05:53:23;;;;;;;24.75;6.32;;;;;;;15.81;100.00;101651.69;5054716;28;20626;-75
2022/06/13 05:55:53;;;;;;;22.00;7.50;;;;;;;15.78;100.00;101650.50;5064171;28;20040;-76
2022/06/13 05:58:21;;;;;;;19.33;7.30;;;;;;;15.84;100.00;101653.66;5057130;28;20123;-76
2022/06/13 06:00:53;;;;;;;22.75;7.28;;;;;;;15.82;100.00;101647.69;5059166;28;20048;-75
2022/06/13 06:03:21;;;;;;;20.77;7.18;;;;;;;15.79;100.00;101646.50;5058706;28;20048;-75
2022/06/13 06:05:48;;;;;;;22.13;8.45;;;;;;;15.89;100.00;101645.63;5054539;28;20076;-72
2022/06/13 06:08:23;;;;;;;20.73;7.93;;;;;;;15.96;100.00;101645.56;5056431;28;20473;-74
2022/06/13 06:10:53;;;;;;;24.25;7.85;;;;;;;16.03;100.00;101644.72;5057557;28;20057;-73
2022/06/13 06:13:20;;;;;;;18.35;7.13;;;;;;;16.04;100.00;101647.13;5055084;28;20079;-73
2022/06/13 06:15:48;;;;;;;24.00;7.68;;;;;;;15.99;100.00;101652.34;5052754;28;20350;-73
2022/06/13 06:18:16;;;;;;;20.27;6.68;;;;;;;15.89;100.00;101653.22;5064797;28;20140;-72
2022/06/13 06:20:42;;;;;;;19.38;7.38;;;;;;;15.89;100.00;101651.22;5063689;28;20052;-72
2022/06/13 06:23:09;;;;;;;19.10;8.02;;;;;;;15.83;100.00;101640.91;5049084;28;20131;-72
2022/06/13 06:25:36;;;;;;;24.15;8.82;;;;;;;15.85;100.00;101650.44;5054565;28;20105;-73
2022/06/13 06:28:04;;;;;;;10.90;3.90;;;;;;;15.77;100.00;101654.50;5060360;28;20527;-73
2022/06/13 06:30:30;;;;;;;20.90;8.10;;;;;;;15.84;100.00;101651.66;5065428;28;20055;-73
2022/06/13 06:32:57;;;;;;;17.60;7.18;;;;;;;15.88;100.00;101657.19;5061877;28;20048;-72
2022/06/13 06:35:26;;;;;;;30.77;9.77;;;;;;;15.92;100.00;101655.97;5058303;28;20127;-72
2022/06/13 06:37:54;;;;;;;21.17;8.77;;;;;;;16.07;100.00;101662.25;5065717;28;20060;-73
2022/06/13 06:40:23;;;;;;;22.90;8.40;;;;;;;16.17;100.00;101664.94;5056367;28;20047;-74
2022/06/13 06:42:50;;;;;;;23.65;7.97;;;;;;;16.28;100.00;101676.81;5057234;28;20128;-74
2022/06/13 06:45:23;;;;;;;27.58;8.15;;;;;;;16.49;100.00;101661.84;5053387;28;20125;-73
2022/06/13 06:47:51;;;;;;;28.35;10.25;;;;;;;16.69;100.00;101674.81;5055659;28;20052;-74
2022/06/13 06:50:22;;;;;;;26.85;10.15;;;;;;;16.88;100.00;101673.41;5054252;28;20135;-73
2022/06/13 06:52:48;;;;;;;31.80;8.52;;;;;;;16.90;100.00;101670.97;5078834;28;20132;-74
2022/06/13 07:01:01;;;;;;;;;;;;;;;16.61;100.00;101669.72;5055363;28;20234;-75
2022/06/13 07:03:28;;;;;;;26.05;10.10;;;;;;;16.72;100.00;101668.41;5062000;28;20024;-72
2022/06/13 07:05:55;;;;;;;15.48;6.30;;;;;;;16.80;100.00;101667.09;5060213;28;20064;-73
2022/06/13 07:08:21;;;;;;;8.68;3.00;;;;;;;16.73;100.00;101669.97;5058552;28;20680;-72
2022/06/13 07:10:49;;;;;;;13.38;4.05;;;;;;;16.72;100.00;101668.41;5061137;28;20063;-73
2022/06/13 07:13:18;;;;;;;23.60;9.63;;;;;;;16.77;100.00;101670.72;5059898;28;20075;-73
2022/06/13 07:15:48;;;;;;;25.20;12.38;;;;;;;16.89;100.00;101675.00;5056351;28;20060;-74
2022/06/13 07:18:16;;;;;;;28.08;11.40;;;;;;;16.92;100.00;101668.56;5060849;28;20044;-72
2022/06/13 07:20:44;;;;;;;23.95;11.00;;;;;;;16.93;100.00;101672.94;5063053;28;20711;-75
2022/06/13 07:23:10;;;;;;;31.63;11.60;;;;;;;16.97;100.00;101682.06;5062808;28;20567;-74
2022/06/13 07:25:37;;;;;;;18.08;6.32;;;;;;;16.97;100.00;101682.88;5054199;28;20131;-76
2022/06/13 07:28:04;;;;;;;33.35;12.32;;;;;;;16.98;100.00;101678.09;5054167;28;20202;-73
2022/06/13 07:30:31;;;;;;;10.32;3.53;;;;;;;16.82;100.00;101680.66;5057664;28;20041;-73
2022/06/13 07:32:58;;;;;;;5.50;3.45;;;;;;;16.80;100.00;101683.06;5063773;28;20051;-73
2022/06/13 07:35:25;;;;;;;35.30;17.10;;;;;;;17.06;100.00;101694.34;5056409;28;20045;-73
2022/06/13 07:40:37;;;;;;;26.38;14.05;;;;;;;17.09;100.00;101689.94;5054836;28;20083;-75
2022/06/13 07:43:06;;;;;;;40.20;18.23;;;;;;;17.26;100.00;101686.91;5057564;28;20512;-74
2022/06/13 07:45:39;;;;;;;37.03;16.27;;;;;;;17.40;100.00;101683.13;5049407;28;20053;-73
2022/06/13 07:48:19;;;;;;;12.63;5.95;;;;;;;17.38;100.00;101691.94;5059780;28;20110;-73
2022/06/13 07:50:46;;;;;;;41.20;15.45;;;;;;;17.50;100.00;101688.59;5055293;28;20044;-72
2022/06/13 07:53:13;;;;;;;29.30;13.57;;;;;;;17.62;100.00;101696.41;5062676;28;20509;-73
2022/06/13 07:55:40;;;;;;;33.25;14.88;;;;;;;17.91;100.00;101703.19;5054447;28;20227;-74
2022/06/13 07:58:15;;;;;;;26.25;12.18;;;;;;;17.95;100.00;101703.13;5058691;28;20132;-73
2022/06/13 08:00:43;;;;;;;;;;;;;;;18.10;100.00;101690.47;5057464;28;20595;-75
2022/06/13 08:03:17;;;;;;;31.25;14.13;;;;;;;18.12;100.00;101699.22;5064258;28;19997;-73
2022/06/13 08:05:43;;;;;;;30.88;13.95;;;;;;;18.45;100.00;101703.09;5061710;28;20127;-73
2022/06/13 08:08:10;;;;;;;8.57;3.15;;;;;;;18.48;100.00;101700.25;5055568;28;20131;-74
2022/06/13 08:10:38;;;;;;;24.75;12.40;;;;;;;18.71;100.00;101705.03;5056183;28;20156;-73
2022/06/13 08:13:04;;;;;;;23.73;10.93;;;;;;;18.93;100.00;101707.00;5053481;28;20143;-74
2022/06/13 08:15:31;;;;;;;25.23;10.85;;;;;;;18.95;100.00;101709.38;5055432;28;20131;-73
2022/06/13 08:17:57;;;;;;;25.17;9.20;;;;;;;18.94;100.00;101705.78;5060132;28;20053;-72
2022/06/13 08:20:24;;;;;;;30.92;10.63;;;;;;;19.04;100.00;101709.59;5062618;28;20052;-73
2022/06/13 08:22:53;;;;;;;21.55;9.95;;;;;;;19.22;100.00;101707.22;5055509;28;20501;-73
2022/06/13 08:25:25;;;;;;;24.58;9.63;;;;;;;19.37;100.00;101714.91;5052262;28;20099;-72
2022/06/13 08:27:52;;;;;;;24.48;7.28;;;;;;;19.36;94.20;101710.53;5050791;28;20798;-74
2022/06/13 08:30:19;;;;;;;12.20;5.43;;;;;;;18.96;88.62;101708.94;5051058;28;20718;-73
2022/06/13 08:32:46;;;;;;;28.90;8.80;;;;;;;19.21;88.05;101711.25;5053713;28;20136;-73
2022/06/13 08:35:14;;;;;;;21.73;9.73;;;;;;;19.49;91.02;101713.47;5057291;28;20045;-73
2022/06/13 08:37:41;;;;;;;21.55;8.75;;;;;;;19.72;90.32;101716.16;5060293;28;20225;-73
2022/06/13 08:40:10;;;;;;;29.38;9.57;;;;;;;19.91;89.13;101710.47;5057094;28;20139;-72
2022/06/13 08:42:40;;;;;;;17.13;7.55;;;;;;;20.08;88.27;101714.09;5052317;28;20505;-72
2022/06/13 08:45:17;;;;;;;20.67;7.80;;;;;;;20.10;84.91;101712.44;5057886;28;20197;-75
2022/06/13 08:47:47;;;;;;;19.88;7.22;;;;;;;20.08;83.87;101719.72;5058379;28;20053;-72
2022/06/13 08:50:37;;;;;;;20.48;8.32;;;;;;;20.03;84.30;101721.03;5058450;28;20089;-71
2022/06/13 08:53:06;;;;;;;20.90;7.95;;;;;;;19.83;85.78;101725.94;5047741;28;20167;-71
2022/06/13 08:55:45;;;;;;;20.20;7.30;;;;;;;19.71;87.09;101731.44;5060643;28;20155;-72
2022/06/13 08:58:33;;;;;;;19.85;7.07;;;;;;;19.54;83.39;101733.41;5055038;28;20190;-71
2022/06/13 09:01:06;;;;;;;23.25;6.40;;;;;;;19.70;81.71;101739.06;5052305;28;20290;-72
2022/06/13 09:03:32;;;;;;;21.02;5.40;;;;;;;19.96;79.28;101732.44;5051053;28;20053;-71
2022/06/13 09:06:08;;;;;;;14.75;4.47;;;;;;;20.12;72.70;101738.09;5054166;28;20179;-74
2022/06/13 09:08:46;;;;;;;15.25;4.78;;;;;;;20.09;68.16;101736.13;5068593;28;20114;-72
2022/06/13 09:11:21;;;;;;;17.40;4.85;;;;;;;20.17;70.56;101734.75;5058751;28;20536;-73
2022/06/13 09:13:59;;;;;;;17.40;4.20;;;;;;;20.22;68.67;101733.47;5053568;28;20162;-72
2022/06/13 09:16:33;;;;;;;15.90;4.68;;;;;;;20.22;66.52;101741.88;5060405;28;20076;-71
2022/06/13 09:19:13;;;;;;;18.27;4.70;;;;;;;20.10;68.48;101742.53;5051085;28;20083;-72
2022/06/13 09:22:06;;;;;;;11.32;3.15;;;;;;;19.81;62.97;101744.44;5057692;28;20305;-72
2022/06/13 09:24:37;;;;;;;12.93;4.18;;;;;;;20.07;66.67;101747.03;5046529;28;20053;-74
2022/06/13 09:27:13;;;;;;;11.23;3.40;;;;;;;19.93;63.79;101752.97;5060068;28;20141;-72
2022/06/13 09:29:50;;;;;;;18.02;4.40;;;;;;;19.91;65.66;101743.41;5046988;28;20063;-73
2022/06/13 09:32:23;;;;;;;12.90;3.90;;;;;;;19.96;66.02;101754.91;5055032;28;20507;-73
2022/06/13 09:34:59;;;;;;;14.57;4.30;;;;;;;20.11;66.37;101753.38;5058815;28;20577;-73
2022/06/13 09:37:53;;;;;;;16.00;4.55;;;;;;;20.16;65.32;101760.50;5059481;28;20051;-72
2022/06/13 09:40:45;;;;;;;17.25;5.80;;;;;;;20.35;65.98;101754.78;5046806;28;20080;-72
2022/06/13 09:43:42;;;;;;;13.35;4.30;;;;;;;20.27;63.31;101752.59;5050908;28;20437;-73
2022/06/13 09:46:22;;;;;;;12.68;3.85;;;;;;;20.24;61.07;101745.84;5056869;28;20125;-72
2022/06/13 09:49:07;;;;;;;12.77;4.45;;;;;;;20.65;62.34;101748.00;5053102;28;20062;-73
2022/06/13 09:52:03;;;;;;;12.55;3.95;;;;;;;20.66;59.62;101746.78;5057426;28;20056;-73
2022/06/13 09:54:38;;;;;;;11.57;2.80;;;;;;;20.51;59.59;101748.34;5061943;28;20056;-72
2022/06/13 09:57:11;;;;;;;;;;;;;;;20.28;59.35;101740.09;5055647;28;20055;-73
2022/06/13 09:59:40;;;;;;;15.88;3.47;;;;;;;20.31;61.71;101745.66;5057592;28;19986;-73
2022/06/13 10:02:52;;;;;;;13.32;3.83;;;;;;;20.43;62.25;101736.50;5060051;28;20922;-73
2022/06/13 10:05:34;;;;;;;7.40;2.80;;;;;;;20.27;57.04;101742.16;5057549;28;20475;-73
2022/06/13 10:08:28;;;;;;;8.38;2.42;;;;;;;20.65;56.18;101736.75;5056873;28;20076;-73
2022/06/13 10:11:49;;;;;;;6.80;2.17;;;;;;;21.15;51.87;101731.38;5047382;28;20063;-73
2022/06/13 10:14:30;;;;;;;4.20;1.33;;;;;;;20.88;49.43;101732.91;5059555;28;20045;-73
2022/06/13 10:17:27;;;;;;;12.98;2.63;;;;;;;21.04;50.37;101741.34;5058337;28;20481;-73
2022/06/13 10:20:15;;;;;;;5.50;2.40;;;;;;;21.21;50.01;101740.84;5063432;28;20052;-75
2022/06/13 10:22:54;;;;;;;9.27;2.35;;;;;;;21.45;50.29;101738.53;5057108;28;20052;-74
2022/06/13 10:26:03;;;;;;;7.07;2.63;;;;;;;21.37;49.47;101754.06;5057179;28;20131;-73
2022/06/13 10:28:48;;;;;;;11.50;2.50;;;;;;;21.63;47.47;101747.25;5054901;28;20142;-73
2022/06/13 10:31:32;;;;;;;8.82;2.50;;;;;;;21.95;47.87;101747.88;5057998;28;20075;-72
2022/06/13 10:34:04;;;;;;;5.60;2.30;;;;;;;21.97;46.53;101753.06;5058385;28;20135;-73
2022/06/13 10:36:44;;;;;;;5.72;1.23;;;;;;;21.65;45.79;101751.19;5061244;28;20055;-73
2022/06/13 10:39:15;;;;;;;8.05;2.13;;;;;;;21.75;47.44;101754.94;5057661;28;20135;-73
2022/06/13 10:41:44;;;;;;;3.97;1.30;;;;;;;21.94;47.13;101753.97;5055750;28;20052;-73
2022/06/13 10:44:14;;;;;;;6.07;2.00;;;;;;;21.86;45.67;101744.13;5060962;28;20086;-72
2022/06/13 10:46:43;;;;;;;10.98;2.53;;;;;;;21.91;46.23;101760.50;5053468;28;20041;-73
2022/06/13 10:49:17;;;;;;;9.52;2.13;;;;;;;22.05;47.21;101752.38;5058576;28;20098;-72
2022/06/13 10:51:46;;;;;;;11.68;2.25;;;;;;;22.25;47.53;101752.13;5061844;28;20163;-73
2022/06/13 10:54:18;;;;;;;9.77;2.70;;;;;;;22.39;46.89;101760.91;5053105;28;20170;-74
2022/06/13 10:56:59;;;;;;;10.48;2.85;;;;;;;22.74;47.66;101756.91;5061505;28;20097;-75
2022/06/13 10:59:27;;;;;;;6.53;1.65;;;;;;;22.57;42.97;101754.69;5059019;28;20131;-74
2022/06/13 11:02:00;;;;;;;11.00;2.35;;;;;;;22.64;45.16;101762.91;5053986;28;20080;-74
2022/06/13 11:04:36;;;;;;;4.40;1.48;;;;;;;22.21;42.66;101754.28;5049608;28;20045;-74
2022/06/13 11:07:14;;;;;;;4.25;1.83;;;;;;;22.13;42.91;101770.63;5060300;28;20499;-73
2022/06/13 11:09:57;;;;;;;8.88;1.70;;;;;;;22.47;43.92;101762.25;5055856;28;20052;-74
2022/06/13 11:12:30;;;;;;;11.77;1.85;;;;;;;22.90;43.12;101741.03;5051940;28;20076;-69
2022/06/13 11:23:20;;;;;;;6.30;1.55;;;;;;;22.86;42.26;101768.59;5052579;28;20099;-72
2022/06/13 11:25:56;;;;;;;15.07;1.92;;;;;;;22.81;40.67;101764.31;5060852;28;20066;-72
2022/06/13 11:28:27;;;;;;;9.18;1.95;;;;;;;22.66;41.63;101769.69;5056829;28;20117;-72
2022/06/13 11:31:19;;;;;;;7.43;2.28;;;;;;;22.56;41.55;101776.50;5059419;28;20059;-75
2022/06/13 11:33:45;;;;;;;10.13;2.15;;;;;;;22.49;43.52;101779.56;5053355;28;20052;-73
2022/06/13 11:36:15;;;;;;;5.07;1.45;;;;;;;22.28;44.40;101774.56;5057124;28;20076;-75
2022/06/13 11:38:59;;;;;;;6.28;1.63;;;;;;;22.16;43.87;101777.41;5057916;28;20045;-71
2022/06/13 11:41:28;;;;;;;4.07;1.85;;;;;;;22.27;44.09;101775.81;5060445;28;20049;-71
2022/06/13 11:43:59;;;;;;;8.43;1.88;;;;;;;22.52;45.16;101777.84;5067497;28;20088;-73
2022/06/13 11:46:26;;;;;;;4.10;1.40;;;;;;;22.55;44.42;101774.13;5057145;28;20099;-75
2022/06/13 11:48:55;;;;;;;4.90;1.95;;;;;;;23.07;43.55;101765.03;5057960;28;20163;-74
2022/06/13 11:51:26;;;;;;;5.78;1.70;;;;;;;23.90;42.42;101755.41;5060450;28;20519;-71
2022/06/13 11:53:57;;;;;;;7.72;1.65;;;;;;;24.09;40.58;101764.75;5058993;28;20124;-74
2022/06/13 11:56:27;;;;;;;27.30;2.83;;;;;;;23.88;40.35;101766.38;5058512;28;20056;-73
2022/06/13 11:58:55;;;;;;;15.20;1.70;;;;;;;23.62;41.39;101772.69;5058868;28;20087;-74
2022/06/13 12:01:35;;;;;;;7.63;1.67;;;;;;;23.27;41.20;101771.16;5062099;28;20048;-72
2022/06/13 12:04:11;;;;;;;5.35;1.77;;;;;;;23.06;41.90;101777.56;5053443;28;20091;-75
2022/06/13 12:06:43;;;;;;;11.32;2.05;;;;;;;22.97;42.94;101780.31;5054274;28;20064;-72
2022/06/13 12:09:19;;;;;;;14.95;1.73;;;;;;;22.68;42.23;101781.31;5057625;28;20080;-73
2022/06/13 12:11:52;;;;;;;6.78;1.70;;;;;;;23.01;42.77;101784.59;5051909;28;20044;-72
2022/06/13 12:14:19;;;;;;;4.30;0.98;;;;;;;23.63;41.07;101766.56;5049549;28;20426;-73